Time;durP1;ratioP1;P1;durP2;ratioP2;P2;SDS_P1;SDS_P2;PMS_P1;PMS_P2;Temp;Humidity;BMP_temperature;BMP_pressure;BME280_temperature;BME280_humidity;BME280_pressure;Samples;Min_cycle;Max_cycle;Signal;HPM_P1;HPM_P2
2022/07/24 00:01:04;;;;;;;0.85;0.75;;;;;;;;;;5062458;28;20049;-57
2022/07/24 00:03:31;;;;;;;1.20;0.90;;;;;;;;;;5050892;28;20056;-57
2022/07/24 00:05:57;;;;;;;0.80;0.70;;;;;;;;;;5064255;28;20123;-57
2022/07/24 00:08:23;;;;;;;0.65;0.55;;;;;;;;;;5050736;28;20052;-57
2022/07/24 00:10:49;;;;;;;2.35;0.75;;;;;;;;;;5051274;28;20044;-57
2022/07/24 00:13:15;;;;;;;1.52;0.98;;;;;;;;;;5069487;28;20123;-57
2022/07/24 00:15:41;;;;;;;0.65;0.65;;;;;;;;;;5068398;28;20572;-57
2022/07/24 00:18:07;;;;;;;0.60;0.60;;;;;;;;;;5069290;28;20703;-57
2022/07/24 00:20:33;;;;;;;1.00;0.90;;;;;;;;;;5070755;28;20060;-57
2022/07/24 00:22:59;;;;;;;0.85;0.60;;;;;;;;;;5070304;28;20131;-57
2022/07/24 00:25:25;;;;;;;0.80;0.80;;;;;;;;;;5070347;28;20070;-57
2022/07/24 00:27:51;;;;;;;0.60;0.60;;;;;;;;;;5070044;28;20056;-57
2022/07/24 00:30:17;;;;;;;0.63;0.60;;;;;;;;;;5069622;28;20135;-57
2022/07/24 00:32:43;;;;;;;0.90;0.75;;;;;;;;;;5069655;28;20109;-57
2022/07/24 00:35:12;;;;;;;0.85;0.70;;;;;;;;;;5069867;28;20052;-57
2022/07/24 00:37:38;;;;;;;0.93;0.80;;;;;;;;;;5069584;28;20060;-58
2022/07/24 00:40:04;;;;;;;1.10;1.00;;;;;;;;;;5069508;28;20051;-57
2022/07/24 00:42:30;;;;;;;1.10;0.80;;;;;;;;;;5070160;28;20051;-57
2022/07/24 00:44:57;;;;;;;0.75;0.75;;;;;;;;;;5067262;28;20055;-57
2022/07/24 00:47:23;;;;;;;0.75;0.75;;;;;;;;;;5068478;28;20048;-57
2022/07/24 00:49:49;;;;;;;0.65;0.45;;;;;;;;;;5069915;28;20113;-57
2022/07/24 00:52:15;;;;;;;0.80;0.80;;;;;;;;;;5069879;28;20040;-57
2022/07/24 00:54:41;;;;;;;0.73;0.73;;;;;;;;;;5070047;28;20048;-58
2022/07/24 00:57:07;;;;;;;0.63;0.63;;;;;;;;;;5063562;28;20126;-58
2022/07/24 00:59:33;;;;;;;0.80;0.80;;;;;;;;;;5062089;28;20130;-58
2022/07/24 01:01:59;;;;;;;0.70;0.70;;;;;;;;;;5047265;28;20079;-57
2022/07/24 01:04:25;;;;;;;0.70;0.70;;;;;;;;;;5048341;28;20048;-58
2022/07/24 01:06:51;;;;;;;0.70;0.70;;;;;;;;;;5052234;28;20124;-57
2022/07/24 01:09:18;;;;;;;0.80;0.80;;;;;;;;;;5049831;28;20051;-58
2022/07/24 01:11:44;;;;;;;0.77;0.77;;;;;;;;;;5049785;28;20091;-58
2022/07/24 01:14:13;;;;;;;1.67;0.82;;;;;;;;;;5049241;28;20049;-58
2022/07/24 01:16:39;;;;;;;0.60;0.60;;;;;;;;;;5047570;28;20075;-58
2022/07/24 01:19:05;;;;;;;3.45;0.70;;;;;;;;;;5064275;28;20045;-57
2022/07/24 01:21:31;;;;;;;0.77;0.77;;;;;;;;;;5068142;28;20040;-58
2022/07/24 01:23:57;;;;;;;1.10;0.80;;;;;;;;;;5069135;28;20068;-58
2022/07/24 01:26:24;;;;;;;0.60;0.60;;;;;;;;;;5084869;28;20052;-58
2022/07/24 01:28:50;;;;;;;0.90;0.70;;;;;;;;;;5069205;28;20058;-57
2022/07/24 01:31:16;;;;;;;0.70;0.70;;;;;;;;;;5066109;28;20048;-57
2022/07/24 01:33:42;;;;;;;1.08;0.95;;;;;;;;;;5068228;28;20052;-57
2022/07/24 01:36:08;;;;;;;1.17;0.82;;;;;;;;;;5068833;28;20134;-57
2022/07/24 01:38:34;;;;;;;0.82;0.60;;;;;;;;;;5069414;28;20147;-57
2022/07/24 01:41:00;;;;;;;0.95;0.65;;;;;;;;;;5068429;28;20110;-57
2022/07/24 01:43:26;;;;;;;1.35;0.75;;;;;;;;;;5069456;28;20401;-58
2022/07/24 01:45:52;;;;;;;0.70;0.70;;;;;;;;;;5067242;28;20053;-57
2022/07/24 01:48:18;;;;;;;0.77;0.68;;;;;;;;;;5068530;28;20048;-58
2022/07/24 01:50:44;;;;;;;1.95;0.65;;;;;;;;;;5069348;28;20060;-57
2022/07/24 01:53:10;;;;;;;1.30;0.82;;;;;;;;;;5068040;28;20040;-57
2022/07/24 01:55:36;;;;;;;1.00;0.70;;;;;;;;;;5066510;28;20098;-57
2022/07/24 01:58:02;;;;;;;1.08;0.68;;;;;;;;;;5068637;28;20044;-57
2022/07/24 02:00:28;;;;;;;0.75;0.75;;;;;;;;;;5067791;28;20102;-58
2022/07/24 02:02:54;;;;;;;0.68;0.68;;;;;;;;;;5068742;28;20044;-57
2022/07/24 02:05:21;;;;;;;0.68;0.68;;;;;;;;;;5068866;28;20044;-58
2022/07/24 02:07:54;;;;;;;0.90;0.73;;;;;;;;;;5069263;28;20040;-57
2022/07/24 02:10:20;;;;;;;0.73;0.68;;;;;;;;;;5066671;28;20056;-57
2022/07/24 02:12:46;;;;;;;0.85;0.70;;;;;;;;;;5068882;28;20099;-57
2022/07/24 02:15:12;;;;;;;1.10;0.82;;;;;;;;;;5059191;28;20103;-57
2022/07/24 02:17:38;;;;;;;0.70;0.70;;;;;;;;;;5048024;28;20074;-57
2022/07/24 02:20:05;;;;;;;0.70;0.70;;;;;;;;;;5048514;28;20052;-57
2022/07/24 02:22:33;;;;;;;0.80;0.80;;;;;;;;;;5048950;28;20045;-57
2022/07/24 02:24:59;;;;;;;1.10;0.77;;;;;;;;;;5048499;28;20060;-57
2022/07/24 02:27:25;;;;;;;1.02;1.00;;;;;;;;;;5054123;28;20055;-57
2022/07/24 02:29:51;;;;;;;0.80;0.80;;;;;;;;;;5069016;28;20071;-57
2022/07/24 02:32:17;;;;;;;1.40;0.73;;;;;;;;;;5067753;28;20127;-57
2022/07/24 02:34:43;;;;;;;0.80;0.80;;;;;;;;;;5052854;28;20070;-57
2022/07/24 02:37:09;;;;;;;1.38;0.95;;;;;;;;;;5052060;28;20515;-57
2022/07/24 02:39:35;;;;;;;0.98;0.90;;;;;;;;;;5052645;28;20461;-57
2022/07/24 02:42:01;;;;;;;1.27;1.02;;;;;;;;;;5051711;28;20123;-57
2022/07/24 02:44:27;;;;;;;1.00;0.90;;;;;;;;;;5056249;28;20148;-57
2022/07/24 02:46:53;;;;;;;2.58;1.23;;;;;;;;;;5070472;28;20059;-57
2022/07/24 02:49:19;;;;;;;0.60;0.60;;;;;;;;;;5071737;28;20086;-57
2022/07/24 02:51:45;;;;;;;0.70;0.70;;;;;;;;;;5072425;28;20067;-57
2022/07/24 02:54:11;;;;;;;1.15;1.00;;;;;;;;;;5071937;28;20186;-57
2022/07/24 02:56:37;;;;;;;0.80;0.80;;;;;;;;;;5087581;28;20060;-57
2022/07/24 02:59:03;;;;;;;0.52;0.52;;;;;;;;;;5054899;28;20052;-57
2022/07/24 03:01:29;;;;;;;1.23;0.90;;;;;;;;;;5051980;28;20088;-57
2022/07/24 03:03:55;;;;;;;0.65;0.65;;;;;;;;;;5072185;28;20049;-57
2022/07/24 03:06:21;;;;;;;0.65;0.63;;;;;;;;;;5071641;28;20052;-58
2022/07/24 03:08:47;;;;;;;0.70;0.70;;;;;;;;;;5072331;28;20182;-57
2022/07/24 03:11:13;;;;;;;1.02;0.93;;;;;;;;;;5071101;28;20045;-57
2022/07/24 03:13:40;;;;;;;0.70;0.70;;;;;;;;;;5071995;28;20131;-58
2022/07/24 03:16:06;;;;;;;1.27;0.80;;;;;;;;;;5069395;28;20051;-57
2022/07/24 03:18:32;;;;;;;0.70;0.70;;;;;;;;;;5083270;28;20047;-57
2022/07/24 03:20:58;;;;;;;0.77;0.77;;;;;;;;;;5071823;28;20075;-58
2022/07/24 03:23:24;;;;;;;1.70;0.80;;;;;;;;;;5071251;28;20222;-57
2022/07/24 03:25:50;;;;;;;1.02;0.70;;;;;;;;;;5071150;28;20052;-57
2022/07/24 03:28:16;;;;;;;0.82;0.80;;;;;;;;;;5071036;28;20048;-57
2022/07/24 03:30:42;;;;;;;0.50;0.50;;;;;;;;;;5069694;28;20048;-57
2022/07/24 03:33:08;;;;;;;1.00;0.75;;;;;;;;;;5071170;28;20155;-57
2022/07/24 03:35:34;;;;;;;0.47;0.47;;;;;;;;;;5071155;28;20505;-58
2022/07/24 03:38:00;;;;;;;1.00;0.90;;;;;;;;;;5071604;28;20044;-57
2022/07/24 03:40:26;;;;;;;0.85;0.85;;;;;;;;;;5070933;28;20083;-57
2022/07/24 03:42:52;;;;;;;0.77;0.77;;;;;;;;;;5071060;28;20500;-57
2022/07/24 03:45:18;;;;;;;0.85;0.85;;;;;;;;;;5069581;28;20631;-57
2022/07/24 03:47:44;;;;;;;0.70;0.70;;;;;;;;;;5070658;28;20052;-57
2022/07/24 03:50:11;;;;;;;0.65;0.65;;;;;;;;;;5070575;28;20535;-57
2022/07/24 03:52:37;;;;;;;0.90;0.88;;;;;;;;;;5071322;28;20052;-57
2022/07/24 03:55:03;;;;;;;0.63;0.60;;;;;;;;;;5070392;28;20048;-57
2022/07/24 03:57:29;;;;;;;1.38;0.90;;;;;;;;;;5050822;28;20057;-57
2022/07/24 03:59:55;;;;;;;0.90;0.90;;;;;;;;;;5050936;28;20531;-57
2022/07/24 04:02:21;;;;;;;0.85;0.77;;;;;;;;;;5048783;28;20170;-57
2022/07/24 04:04:47;;;;;;;0.70;0.70;;;;;;;;;;5067756;28;20459;-58
2022/07/24 04:07:13;;;;;;;0.60;0.60;;;;;;;;;;5070367;28;20835;-57
2022/07/24 04:09:39;;;;;;;0.73;0.70;;;;;;;;;;5070683;28;20413;-57
2022/07/24 04:12:05;;;;;;;0.60;0.60;;;;;;;;;;5069901;28;20509;-57
2022/07/24 04:14:32;;;;;;;0.95;0.80;;;;;;;;;;5070253;28;20091;-57
2022/07/24 04:16:58;;;;;;;0.77;0.77;;;;;;;;;;5048834;28;20041;-57
2022/07/24 04:19:24;;;;;;;1.13;1.00;;;;;;;;;;5061770;28;20762;-57
2022/07/24 04:21:50;;;;;;;2.15;1.10;;;;;;;;;;5066093;28;20127;-57
2022/07/24 04:24:16;;;;;;;0.82;0.70;;;;;;;;;;5049026;28;20045;-57
2022/07/24 04:26:42;;;;;;;0.60;0.60;;;;;;;;;;5049893;28;20502;-58
2022/07/24 04:29:08;;;;;;;0.70;0.70;;;;;;;;;;5050058;28;20047;-57
2022/07/24 04:31:34;;;;;;;0.75;0.73;;;;;;;;;;5048738;28;20091;-57
2022/07/24 04:34:01;;;;;;;0.68;0.65;;;;;;;;;;5050600;28;20482;-57
2022/07/24 04:36:27;;;;;;;1.23;0.90;;;;;;;;;;5067356;28;20758;-57
2022/07/24 04:38:53;;;;;;;1.02;0.80;;;;;;;;;;5070447;28;20063;-57
2022/07/24 04:41:19;;;;;;;0.70;0.70;;;;;;;;;;5069336;28;20055;-57
2022/07/24 04:43:45;;;;;;;0.75;0.75;;;;;;;;;;5070372;28;20060;-57
2022/07/24 04:46:11;;;;;;;1.20;1.08;;;;;;;;;;5066717;28;20056;-57
2022/07/24 04:48:37;;;;;;;0.75;0.60;;;;;;;;;;5070036;28;20063;-57
2022/07/24 04:51:03;;;;;;;0.80;0.80;;;;;;;;;;5070295;28;20056;-58
2022/07/24 04:53:30;;;;;;;0.73;0.73;;;;;;;;;;5068901;28;20055;-57
2022/07/24 04:55:57;;;;;;;0.63;0.63;;;;;;;;;;5069690;28;20401;-57
2022/07/24 04:58:23;;;;;;;0.98;0.90;;;;;;;;;;5065289;28;20169;-57
2022/07/24 05:00:49;;;;;;;0.73;0.73;;;;;;;;;;5065974;28;20474;-57
2022/07/24 05:03:15;;;;;;;0.93;0.65;;;;;;;;;;5049395;28;20061;-57
2022/07/24 05:05:41;;;;;;;0.60;0.60;;;;;;;;;;5051357;28;20049;-58
2022/07/24 05:08:07;;;;;;;0.93;0.80;;;;;;;;;;5051620;28;20049;-58
2022/07/24 05:10:33;;;;;;;0.70;0.70;;;;;;;;;;5068798;28;20130;-57
2022/07/24 05:12:59;;;;;;;0.77;0.77;;;;;;;;;;5069679;28;20040;-57
2022/07/24 05:15:25;;;;;;;0.70;0.70;;;;;;;;;;5067994;28;20135;-57
2022/07/24 05:17:51;;;;;;;0.60;0.60;;;;;;;;;;5066302;28;20048;-57
2022/07/24 05:20:17;;;;;;;1.15;0.80;;;;;;;;;;5069223;28;20072;-57
2022/07/24 05:22:43;;;;;;;1.05;0.70;;;;;;;;;;5069770;28;20067;-57
2022/07/24 05:25:09;;;;;;;0.88;0.77;;;;;;;;;;5069219;28;20053;-57
2022/07/24 05:27:35;;;;;;;0.60;0.60;;;;;;;;;;5069192;28;20045;-57
2022/07/24 05:30:01;;;;;;;0.82;0.80;;;;;;;;;;5069316;28;20431;-58
2022/07/24 05:32:27;;;;;;;1.05;0.80;;;;;;;;;;5067523;28;20051;-57
2022/07/24 05:34:54;;;;;;;1.15;0.70;;;;;;;;;;5069497;28;20047;-57
2022/07/24 05:37:20;;;;;;;0.85;0.80;;;;;;;;;;5068883;28;20052;-57
2022/07/24 05:39:46;;;;;;;0.60;0.60;;;;;;;;;;5069448;28;20056;-57
2022/07/24 05:42:12;;;;;;;0.85;0.70;;;;;;;;;;5083536;28;20048;-57
2022/07/24 05:44:38;;;;;;;1.02;0.93;;;;;;;;;;5069432;28;20141;-57
2022/07/24 05:47:05;;;;;;;0.73;0.68;;;;;;;;;;5067211;28;20056;-57
2022/07/24 05:49:31;;;;;;;1.42;0.82;;;;;;;;;;5068762;28;20796;-57
2022/07/24 05:51:57;;;;;;;0.60;0.60;;;;;;;;;;5069380;28;20056;-57
2022/07/24 05:54:23;;;;;;;0.70;0.70;;;;;;;;;;5068871;28;20094;-57
2022/07/24 05:56:49;;;;;;;0.98;0.82;;;;;;;;;;5068337;28;20117;-57
2022/07/24 05:59:15;;;;;;;1.02;0.70;;;;;;;;;;5068658;28;20036;-57
2022/07/24 06:01:41;;;;;;;0.88;0.70;;;;;;;;;;5063690;28;20099;-57
2022/07/24 06:04:07;;;;;;;0.70;0.70;;;;;;;;;;5049312;28;20402;-57
2022/07/24 06:06:33;;;;;;;1.88;0.95;;;;;;;;;;5068508;28;20645;-57
2022/07/24 06:08:59;;;;;;;1.27;0.95;;;;;;;;;;5073370;28;20048;-57
2022/07/24 06:11:25;;;;;;;1.00;1.00;;;;;;;;;;5072327;28;20044;-57
2022/07/24 06:13:51;;;;;;;1.17;1.02;;;;;;;;;;5073288;28;20051;-57
2022/07/24 06:16:17;;;;;;;0.95;0.80;;;;;;;;;;5070539;28;20136;-57
2022/07/24 06:18:43;;;;;;;0.70;0.60;;;;;;;;;;5073199;28;20748;-57
2022/07/24 06:21:09;;;;;;;0.75;0.70;;;;;;;;;;5073146;28;20564;-57
2022/07/24 06:23:36;;;;;;;1.20;0.70;;;;;;;;;;5060290;28;20841;-58
2022/07/24 06:26:02;;;;;;;0.80;0.73;;;;;;;;;;5067609;28;20047;-58
2022/07/24 06:28:28;;;;;;;0.85;0.80;;;;;;;;;;5070050;28;20044;-57
2022/07/24 06:30:54;;;;;;;0.85;0.73;;;;;;;;;;5050088;28;20527;-57
2022/07/24 06:33:20;;;;;;;0.68;0.60;;;;;;;;;;5060909;28;20044;-57
2022/07/24 06:35:46;;;;;;;0.60;0.60;;;;;;;;;;5072687;28;20051;-57
2022/07/24 06:38:12;;;;;;;1.10;0.70;;;;;;;;;;5072649;28;20123;-57
2022/07/24 06:40:38;;;;;;;0.65;0.63;;;;;;;;;;5071649;28;20493;-57
2022/07/24 06:43:05;;;;;;;1.05;0.73;;;;;;;;;;5072697;28;20151;-57
2022/07/24 06:45:32;;;;;;;1.33;0.82;;;;;;;;;;5068671;28;20048;-57
2022/07/24 06:47:59;;;;;;;0.50;0.50;;;;;;;;;;5072166;28;20057;-57
2022/07/24 06:50:25;;;;;;;1.75;0.77;;;;;;;;;;5072034;28;20167;-57
2022/07/24 06:52:51;;;;;;;0.77;0.73;;;;;;;;;;5072121;28;20563;-57
2022/07/24 06:55:17;;;;;;;0.63;0.63;;;;;;;;;;5071826;28;20048;-57
2022/07/24 06:57:43;;;;;;;0.75;0.70;;;;;;;;;;5072046;28;20081;-58
2022/07/24 07:00:10;;;;;;;0.70;0.60;;;;;;;;;;5071409;28;20131;-57
2022/07/24 07:02:36;;;;;;;0.90;0.70;;;;;;;;;;5070919;28;20092;-57
2022/07/24 07:05:03;;;;;;;0.73;0.73;;;;;;;;;;5071983;28;20048;-58
2022/07/24 07:07:29;;;;;;;0.65;0.60;;;;;;;;;;5053579;28;20052;-57
2022/07/24 07:09:55;;;;;;;0.93;0.80;;;;;;;;;;5062735;28;20045;-57
2022/07/24 07:12:21;;;;;;;0.60;0.60;;;;;;;;;;5071170;28;20132;-58
2022/07/24 07:14:47;;;;;;;1.02;0.80;;;;;;;;;;5072072;28;20102;-58
2022/07/24 07:17:15;;;;;;;1.13;0.88;;;;;;;;;;5068562;28;20051;-58
2022/07/24 07:19:42;;;;;;;1.00;0.90;;;;;;;;;;5071316;28;20041;-58
2022/07/24 07:22:08;;;;;;;1.30;0.88;;;;;;;;;;5054640;28;20045;-58
2022/07/24 07:24:34;;;;;;;0.80;0.70;;;;;;;;;;5051335;28;20551;-57
2022/07/24 07:27:00;;;;;;;0.73;0.70;;;;;;;;;;5051299;28;20509;-57
2022/07/24 07:29:27;;;;;;;0.82;0.82;;;;;;;;;;5049559;28;20048;-57
2022/07/24 07:31:53;;;;;;;0.98;0.70;;;;;;;;;;5048770;28;20055;-57
2022/07/24 07:34:19;;;;;;;0.85;0.60;;;;;;;;;;5061403;28;20432;-57
2022/07/24 07:36:45;;;;;;;1.15;0.80;;;;;;;;;;5067715;28;20063;-58
2022/07/24 07:39:11;;;;;;;1.20;1.00;;;;;;;;;;5071193;28;20044;-58
2022/07/24 07:41:37;;;;;;;0.80;0.80;;;;;;;;;;5069704;28;20048;-58
2022/07/24 07:44:03;;;;;;;1.52;1.20;;;;;;;;;;5071142;28;20045;-58
2022/07/24 07:46:30;;;;;;;1.20;1.08;;;;;;;;;;5067330;28;20056;-57
2022/07/24 07:48:56;;;;;;;2.17;1.42;;;;;;;;;;5069309;28;20425;-57
2022/07/24 07:51:22;;;;;;;2.25;0.90;;;;;;;;;;5069911;28;20083;-57
2022/07/24 07:53:48;;;;;;;1.02;0.90;;;;;;;;;;5070880;28;20056;-58
2022/07/24 07:56:14;;;;;;;1.00;1.00;;;;;;;;;;5071297;28;20051;-58
2022/07/24 07:58:41;;;;;;;1.05;0.95;;;;;;;;;;5069712;28;20071;-57
2022/07/24 08:01:07;;;;;;;0.90;0.90;;;;;;;;;;5068806;28;20040;-57
2022/07/24 08:03:33;;;;;;;2.63;1.25;;;;;;;;;;5070325;28;20548;-57
2022/07/24 08:06:00;;;;;;;2.40;1.10;;;;;;;;;;5070562;28;20045;-57
2022/07/24 08:08:27;;;;;;;1.75;1.27;;;;;;;;;;5069056;28;20053;-57
2022/07/24 08:10:53;;;;;;;1.23;1.00;;;;;;;;;;5067647;28;20048;-57
2022/07/24 08:13:19;;;;;;;1.48;1.05;;;;;;;;;;5060759;28;20395;-58
2022/07/24 08:15:45;;;;;;;1.20;1.10;;;;;;;;;;5062837;28;20052;-60
2022/07/24 08:18:11;;;;;;;3.47;1.65;;;;;;;;;;5051280;28;20048;-59
2022/07/24 08:20:38;;;;;;;1.77;1.10;;;;;;;;;;5051059;28;20079;-59
2022/07/24 08:23:04;;;;;;;2.05;1.45;;;;;;;;;;5055834;28;20052;-57
2022/07/24 08:25:30;;;;;;;1.05;0.90;;;;;;;;;;5067054;28;20482;-57
2022/07/24 08:27:56;;;;;;;1.08;0.93;;;;;;;;;;5062527;28;20482;-57
2022/07/24 08:30:23;;;;;;;2.88;1.08;;;;;;;;;;5050217;28;20537;-57
2022/07/24 08:32:49;;;;;;;2.25;1.38;;;;;;;;;;5057203;28;20072;-57
2022/07/24 08:35:16;;;;;;;3.38;1.30;;;;;;;;;;5062212;28;20044;-57
2022/07/24 08:37:42;;;;;;;2.80;1.38;;;;;;;;;;5062626;28;20478;-57
2022/07/24 08:40:10;;;;;;;2.03;1.25;;;;;;;;;;5068464;28;20036;-57
2022/07/24 08:42:36;;;;;;;1.88;1.30;;;;;;;;;;5067661;28;20174;-57
2022/07/24 08:45:03;;;;;;;1.85;1.35;;;;;;;;;;5068426;28;20048;-57
2022/07/24 08:47:32;;;;;;;2.58;1.10;;;;;;;;;;5064104;28;20048;-57
2022/07/24 08:49:58;;;;;;;1.60;1.23;;;;;;;;;;5068278;28;20101;-57
2022/07/24 08:52:24;;;;;;;1.83;1.13;;;;;;;;;;5065907;28;20051;-57
2022/07/24 08:54:51;;;;;;;2.25;1.35;;;;;;;;;;5067998;28;20102;-57
2022/07/24 08:57:17;;;;;;;1.27;0.90;;;;;;;;;;5067023;28;20409;-57
2022/07/24 08:59:43;;;;;;;1.48;1.27;;;;;;;;;;5059997;28;20044;-57
2022/07/24 09:02:09;;;;;;;1.95;1.20;;;;;;;;;;5066397;28;20040;-57
2022/07/24 09:04:38;;;;;;;1.23;1.10;;;;;;;;;;5064414;28;20055;-57
2022/07/24 09:07:06;;;;;;;1.52;1.20;;;;;;;;;;5063051;28;20508;-57
2022/07/24 09:09:32;;;;;;;2.08;1.42;;;;;;;;;;5065713;28;20389;-57
2022/07/24 09:12:08;;;;;;;1.42;1.10;;;;;;;;;;5063121;28;20048;-58
2022/07/24 09:14:38;;;;;;;1.98;1.40;;;;;;;;;;5061320;28;20525;-59
2022/07/24 09:17:05;;;;;;;1.95;1.30;;;;;;;;;;5061060;28;20107;-58
2022/07/24 09:19:32;;;;;;;1.77;1.50;;;;;;;;;;5064363;28;20058;-57
2022/07/24 09:21:58;;;;;;;1.85;1.42;;;;;;;;;;5068198;28;20049;-57
2022/07/24 09:24:25;;;;;;;1.55;1.25;;;;;;;;;;5067730;28;20401;-58
2022/07/24 09:26:55;;;;;;;3.00;1.35;;;;;;;;;;5065813;28;20044;-57
2022/07/24 09:29:22;;;;;;;2.65;1.20;;;;;;;;;;5064558;28;20041;-57
2022/07/24 09:31:56;;;;;;;2.05;1.20;;;;;;;;;;5065667;28;20048;-57
2022/07/24 09:34:23;;;;;;;1.20;1.10;;;;;;;;;;5066754;28;20056;-57
2022/07/24 09:37:03;;;;;;;1.90;1.30;;;;;;;;;;5063399;28;20071;-57
2022/07/24 09:39:31;;;;;;;1.88;1.30;;;;;;;;;;5062078;28;20135;-57
2022/07/24 09:41:58;;;;;;;1.85;1.20;;;;;;;;;;5061641;28;20482;-57
2022/07/24 09:44:25;;;;;;;2.67;1.30;;;;;;;;;;5070604;28;20063;-57
2022/07/24 09:46:58;;;;;;;2.28;1.35;;;;;;;;;;5053548;28;20044;-57
2022/07/24 09:49:25;;;;;;;1.85;1.10;;;;;;;;;;5069679;28;20052;-57
2022/07/24 09:52:11;;;;;;;1.83;1.33;;;;;;;;;;5069420;28;20076;-57
2022/07/24 09:54:38;;;;;;;2.10;1.30;;;;;;;;;;5070144;28;20060;-57
2022/07/24 09:57:17;;;;;;;1.63;1.45;;;;;;;;;;5055443;28;20190;-57
2022/07/24 09:59:45;;;;;;;2.00;1.58;;;;;;;;;;5060496;28;20045;-57
2022/07/24 10:02:13;;;;;;;2.50;1.50;;;;;;;;;;5063892;28;20049;-57
2022/07/24 10:04:41;;;;;;;1.73;1.25;;;;;;;;;;5059667;28;20448;-57
2022/07/24 10:07:09;;;;;;;3.83;1.52;;;;;;;;;;5064767;28;20048;-58
2022/07/24 10:09:36;;;;;;;1.30;1.05;;;;;;;;;;5067526;28;20485;-57
2022/07/24 10:12:03;;;;;;;1.33;1.10;;;;;;;;;;5060800;28;20041;-57
2022/07/24 10:14:30;;;;;;;2.28;1.45;;;;;;;;;;5050226;28;20060;-57
2022/07/24 10:17:06;;;;;;;2.08;1.33;;;;;;;;;;5047721;28;20116;-57
2022/07/24 10:19:40;;;;;;;1.38;1.20;;;;;;;;;;5049885;28;20134;-57
2022/07/24 10:22:11;;;;;;;2.47;1.60;;;;;;;;;;5061797;28;20053;-57
2022/07/24 10:24:37;;;;;;;3.75;2.10;;;;;;;;;;5065220;28;20501;-57
2022/07/24 10:27:04;;;;;;;1.48;1.27;;;;;;;;;;5062381;28;20049;-57
2022/07/24 10:29:34;;;;;;;2.97;1.75;;;;;;;;;;5059629;28;20130;-57
2022/07/24 10:32:00;;;;;;;5.13;2.20;;;;;;;;;;5047819;28;20053;-56
2022/07/24 10:34:46;;;;;;;5.93;2.85;;;;;;;;;;5055462;28;20215;-56
2022/07/24 10:37:16;;;;;;;7.95;2.25;;;;;;;;;;5058596;28;20194;-56
2022/07/24 10:39:45;;;;;;;3.42;1.67;;;;;;;;;;5049662;28;20037;-56
2022/07/24 10:42:11;;;;;;;5.03;2.15;;;;;;;;;;5065616;28;20048;-57
2022/07/24 10:44:37;;;;;;;3.40;2.08;;;;;;;;;;5069180;28;20558;-57
2022/07/24 10:47:13;;;;;;;4.18;1.92;;;;;;;;;;5067337;28;20049;-57
2022/07/24 10:49:44;;;;;;;2.60;1.70;;;;;;;;;;5069104;28;20509;-57
2022/07/24 10:52:11;;;;;;;2.25;1.30;;;;;;;;;;5070776;28;20052;-57
2022/07/24 10:54:38;;;;;;;4.82;2.25;;;;;;;;;;5070572;28;20056;-57
2022/07/24 10:57:04;;;;;;;4.35;1.80;;;;;;;;;;5068497;28;20489;-57
2022/07/24 10:59:37;;;;;;;3.03;1.80;;;;;;;;;;5072801;28;20048;-57
2022/07/24 11:02:22;;;;;;;3.35;2.10;;;;;;;;;;5069735;28;20044;-57
2022/07/24 11:05:08;;;;;;;3.83;2.00;;;;;;;;;;5086422;28;20501;-57
2022/07/24 11:07:35;;;;;;;3.43;1.60;;;;;;;;;;5072921;28;20056;-57
2022/07/24 11:10:07;;;;;;;2.42;1.50;;;;;;;;;;5072361;28;20028;-57
2022/07/24 11:12:34;;;;;;;2.55;1.50;;;;;;;;;;5072815;28;20086;-57
2022/07/24 11:15:54;;;;;;;4.30;2.05;;;;;;;;;;5072197;28;20040;-59
2022/07/24 11:17:47;;;;;;;2.33;1.50;;;;;;;;;;5071156;28;20409;-57
2022/07/24 11:20:20;;;;;;;2.65;1.63;;;;;;;;;;5072803;28;20036;-57
2022/07/24 11:22:49;;;;;;;2.67;1.70;;;;;;;;;;5052277;28;20443;-57
2022/07/24 11:25:17;;;;;;;3.83;1.83;;;;;;;;;;5065892;28;20055;-57
2022/07/24 11:27:46;;;;;;;4.38;2.10;;;;;;;;;;5059541;28;20132;-57
2022/07/24 11:30:12;;;;;;;2.40;1.60;;;;;;;;;;5051937;28;20044;-57
2022/07/24 11:32:40;;;;;;;2.58;1.52;;;;;;;;;;5051619;28;20498;-57
2022/07/24 11:35:08;;;;;;;2.47;1.63;;;;;;;;;;5052622;28;20151;-57
2022/07/24 11:37:35;;;;;;;3.13;1.42;;;;;;;;;;5052888;28;20056;-57
2022/07/24 11:40:01;;;;;;;1.65;1.38;;;;;;;;;;5052179;28;20494;-57
2022/07/24 11:42:27;;;;;;;2.45;1.42;;;;;;;;;;5071974;28;20045;-57
2022/07/24 11:44:53;;;;;;;2.08;1.50;;;;;;;;;;5072442;28;20048;-57
2022/07/24 11:47:20;;;;;;;2.38;1.63;;;;;;;;;;5070885;28;20048;-57
2022/07/24 11:49:54;;;;;;;4.03;1.77;;;;;;;;;;5071900;28;20126;-57
2022/07/24 11:52:22;;;;;;;1.73;1.30;;;;;;;;;;5063784;28;20060;-57
2022/07/24 11:54:49;;;;;;;2.88;1.60;;;;;;;;;;5072770;28;20080;-57
2022/07/24 11:57:24;;;;;;;2.40;1.58;;;;;;;;;;5072248;28;20047;-57
2022/07/24 11:59:50;;;;;;;2.70;1.40;;;;;;;;;;5072193;28;20060;-57
2022/07/24 12:02:17;;;;;;;2.42;1.33;;;;;;;;;;5070687;28;20067;-57
2022/07/24 12:04:44;;;;;;;1.85;1.40;;;;;;;;;;5072482;28;20048;-57
2022/07/24 12:07:20;;;;;;;2.53;1.35;;;;;;;;;;5071847;28;20056;-57
2022/07/24 12:09:54;;;;;;;3.08;1.67;;;;;;;;;;5071903;28;20045;-57
2022/07/24 12:12:23;;;;;;;2.65;1.55;;;;;;;;;;5068311;28;20095;-57
2022/07/24 12:14:51;;;;;;;2.50;1.40;;;;;;;;;;5064586;28;20341;-57
2022/07/24 12:17:17;;;;;;;2.40;1.35;;;;;;;;;;5069913;28;20493;-57
2022/07/24 12:19:51;;;;;;;3.85;1.58;;;;;;;;;;5072267;28;20045;-57
2022/07/24 12:22:17;;;;;;;3.42;1.70;;;;;;;;;;5072328;28;20048;-57
2022/07/24 12:24:44;;;;;;;2.58;1.67;;;;;;;;;;5072168;28;20040;-57
2022/07/24 12:27:10;;;;;;;3.05;1.70;;;;;;;;;;5070085;28;20051;-57
2022/07/24 12:29:42;;;;;;;2.90;1.48;;;;;;;;;;5071970;28;20041;-58
2022/07/24 12:32:17;;;;;;;5.70;1.85;;;;;;;;;;5069600;28;20052;-57
2022/07/24 12:34:44;;;;;;;3.92;1.90;;;;;;;;;;5070480;28;20048;-57
2022/07/24 12:37:28;;;;;;;4.03;2.13;;;;;;;;;;5059537;28;20287;-57
2022/07/24 12:39:54;;;;;;;2.75;1.52;;;;;;;;;;5053334;28;20048;-57
2022/07/24 12:42:31;;;;;;;2.38;1.33;;;;;;;;;;5064391;28;21024;-57
2022/07/24 12:44:57;;;;;;;;;;;;;;;;;;5056199;28;20045;-57
2022/07/24 12:47:23;;;;;;;1.20;1.00;;;;;;;;;;5060936;28;19943;-57
2022/07/24 12:49:51;;;;;;;2.35;1.65;;;;;;;;;;5051408;28;20159;-57
2022/07/24 12:52:23;;;;;;;1.92;1.23;;;;;;;;;;5061489;28;20048;-57
2022/07/24 12:54:49;;;;;;;1.92;1.42;;;;;;;;;;5053063;28;20417;-57
2022/07/24 12:57:15;;;;;;;2.22;1.42;;;;;;;;;;5050393;28;20055;-57
2022/07/24 12:59:44;;;;;;;2.08;1.30;;;;;;;;;;5050904;28;20041;-57
2022/07/24 13:02:10;;;;;;;1.83;1.40;;;;;;;;;;5048774;28;20128;-57
2022/07/24 13:04:47;;;;;;;2.03;1.40;;;;;;;;;;5051275;28;20120;-57
2022/07/24 13:07:14;;;;;;;3.50;1.63;;;;;;;;;;5058057;28;20059;-57
2022/07/24 13:09:40;;;;;;;2.92;1.60;;;;;;;;;;5062528;28;20044;-57
2022/07/24 13:12:07;;;;;;;2.75;1.45;;;;;;;;;;5055008;28;20040;-57
2022/07/24 13:14:33;;;;;;;2.47;1.50;;;;;;;;;;5051360;28;20037;-57
2022/07/24 13:17:10;;;;;;;2.05;1.40;;;;;;;;;;5048362;28;20052;-57
2022/07/24 13:19:37;;;;;;;2.80;1.50;;;;;;;;;;5050981;28;20056;-57
2022/07/24 13:22:03;;;;;;;2.25;1.40;;;;;;;;;;5050150;28;20041;-57
2022/07/24 13:24:29;;;;;;;2.63;1.50;;;;;;;;;;5050454;28;20049;-57
2022/07/24 13:26:55;;;;;;;2.33;1.35;;;;;;;;;;5050399;28;20049;-57
2022/07/24 13:29:24;;;;;;;1.92;1.20;;;;;;;;;;5049940;28;20485;-57
2022/07/24 13:31:50;;;;;;;1.95;1.33;;;;;;;;;;5055044;28;20052;-57
2022/07/24 13:34:16;;;;;;;2.28;1.55;;;;;;;;;;5049740;28;20493;-57
2022/07/24 13:36:43;;;;;;;3.30;1.50;;;;;;;;;;5050285;28;20038;-57
2022/07/24 13:39:09;;;;;;;2.78;1.50;;;;;;;;;;5050187;28;20044;-57
2022/07/24 13:41:35;;;;;;;2.33;1.30;;;;;;;;;;5050218;28;20134;-57
2022/07/24 13:44:02;;;;;;;2.38;1.35;;;;;;;;;;5049786;28;20052;-57
2022/07/24 13:46:29;;;;;;;3.28;1.55;;;;;;;;;;5050967;28;20048;-57
2022/07/24 13:48:55;;;;;;;2.55;1.60;;;;;;;;;;5050116;28;20053;-57
2022/07/24 13:51:21;;;;;;;3.67;1.83;;;;;;;;;;5049769;28;20041;-57
2022/07/24 13:53:47;;;;;;;2.30;1.52;;;;;;;;;;5050435;28;20103;-57
2022/07/24 13:56:14;;;;;;;2.38;1.50;;;;;;;;;;5049540;28;20068;-57
2022/07/24 13:58:41;;;;;;;2.78;1.40;;;;;;;;;;5049965;28;20053;-57
2022/07/24 14:01:08;;;;;;;2.13;1.40;;;;;;;;;;5046738;28;20560;-57
2022/07/24 14:03:34;;;;;;;2.10;1.40;;;;;;;;;;5056592;28;20095;-58
2022/07/24 14:06:01;;;;;;;2.83;1.63;;;;;;;;;;5054040;28;20045;-57
2022/07/24 14:08:28;;;;;;;1.83;1.38;;;;;;;;;;5056796;28;20047;-57
2022/07/24 14:10:54;;;;;;;3.30;1.88;;;;;;;;;;5048564;28;20421;-57
2022/07/24 14:13:20;;;;;;;1.92;1.27;;;;;;;;;;5049316;28;20082;-57
2022/07/24 14:15:46;;;;;;;1.85;1.17;;;;;;;;;;5048234;28;20517;-57
2022/07/24 14:18:13;;;;;;;2.08;1.40;;;;;;;;;;5049698;28;20047;-57
2022/07/24 14:20:39;;;;;;;3.03;1.38;;;;;;;;;;5049006;28;20111;-57
2022/07/24 14:23:05;;;;;;;2.53;1.25;;;;;;;;;;5052713;28;20076;-57
2022/07/24 14:25:31;;;;;;;2.33;1.30;;;;;;;;;;5056860;28;20067;-57
2022/07/24 14:27:57;;;;;;;2.10;1.40;;;;;;;;;;5061885;28;20080;-57
2022/07/24 14:30:23;;;;;;;2.25;1.48;;;;;;;;;;5052306;28;20627;-57
2022/07/24 14:32:49;;;;;;;2.67;1.55;;;;;;;;;;5053154;28;20044;-57
2022/07/24 14:35:15;;;;;;;2.17;1.25;;;;;;;;;;5053051;28;20045;-57
2022/07/24 14:37:41;;;;;;;2.65;1.55;;;;;;;;;;5059029;28;20509;-57
2022/07/24 14:40:09;;;;;;;2.22;1.30;;;;;;;;;;5065793;28;20040;-57
2022/07/24 14:42:35;;;;;;;1.60;1.17;;;;;;;;;;5053933;28;20095;-57